Terminal Aerodrome Forecast
Issued by NWS

Home | Current Version | Previous Version | Text Only | Print | Product List | Glossary Off
Versions: 1 2 3 4 5 6 7 8 9 10 11 12 13 14 15 16 17 18 19 20

000
FTUS43 KABR 250530
TAFPIR
TAF
KPIR 250530Z 2506/2606 06006KT 5SM -RA BR BKN011 OVC050
      TEMPO 2506/2509 -RA BKN006 OVC011
     FM250900 34006KT 2SM -DZ BR OVC003
     FM251500 34006KT P6SM OVC015
     FM252100 33007KT P6SM OVC035=

USA.gov is the U.S. government's official web portal to all federal, state and local government web resources and services.